sensor_id;sensor_type;location;lat;lon;timestamp;temperature;humidity
57636;DHT22;43465;50.728;4.160;2022-11-23T00:00:36;10.30;99.90
57636;DHT22;43465;50.728;4.160;2022-11-23T00:03:02;10.30;99.90
57636;DHT22;43465;50.728;4.160;2022-11-23T00:05:28;10.30;99.90
57636;DHT22;43465;50.728;4.160;2022-11-23T00:07:54;10.30;99.90
57636;DHT22;43465;50.728;4.160;2022-11-23T00:10:20;10.30;99.90
57636;DHT22;43465;50.728;4.160;2022-11-23T00:12:46;10.30;99.90
57636;DHT22;43465;50.728;4.160;2022-11-23T00:15:13;10.30;99.90
57636;DHT22;43465;50.728;4.160;2022-11-23T00:17:38;10.30;99.90
57636;DHT22;43465;50.728;4.160;2022-11-23T00:20:05;10.40;99.90
57636;DHT22;43465;50.728;4.160;2022-11-23T00:22:31;10.40;99.90
57636;DHT22;43465;50.728;4.160;2022-11-23T00:24:57;10.40;99.90
57636;DHT22;43465;50.728;4.160;2022-11-23T00:27:23;10.30;99.90
57636;DHT22;43465;50.728;4.160;2022-11-23T00:29:48;10.30;99.90
57636;DHT22;43465;50.728;4.160;2022-11-23T00:32:14;10.30;99.90
57636;DHT22;43465;50.728;4.160;2022-11-23T00:34:40;10.30;99.90
57636;DHT22;43465;50.728;4.160;2022-11-23T00:37:06;10.30;99.90
57636;DHT22;43465;50.728;4.160;2022-11-23T00:39:31;10.30;99.90
57636;DHT22;43465;50.728;4.160;2022-11-23T00:41:57;10.30;99.90
57636;DHT22;43465;50.728;4.160;2022-11-23T00:44:22;10.40;99.90
57636;DHT22;43465;50.728;4.160;2022-11-23T00:46:48;10.40;99.90
57636;DHT22;43465;50.728;4.160;2022-11-23T00:49:14;10.40;99.90
57636;DHT22;43465;50.728;4.160;2022-11-23T00:51:39;10.30;99.90
57636;DHT22;43465;50.728;4.160;2022-11-23T00:54:05;10.30;99.90
57636;DHT22;43465;50.728;4.160;2022-11-23T00:56:33;10.30;99.90
57636;DHT22;43465;50.728;4.160;2022-11-23T00:59:00;10.30;99.90
57636;DHT22;43465;50.728;4.160;2022-11-23T01:01:28;10.30;99.90
57636;DHT22;43465;50.728;4.160;2022-11-23T01:03:57;10.30;99.90
57636;DHT22;43465;50.728;4.160;2022-11-23T01:06:25;10.30;99.90
57636;DHT22;43465;50.728;4.160;2022-11-23T01:08:53;10.20;99.90
57636;DHT22;43465;50.728;4.160;2022-11-23T01:11:20;10.20;99.90
57636;DHT22;43465;50.728;4.160;2022-11-23T01:13:46;10.20;99.90
57636;DHT22;43465;50.728;4.160;2022-11-23T01:16:14;10.20;99.90
57636;DHT22;43465;50.728;4.160;2022-11-23T01:18:40;10.20;99.90
57636;DHT22;43465;50.728;4.160;2022-11-23T01:21:06;10.30;99.90
57636;DHT22;43465;50.728;4.160;2022-11-23T01:23:32;10.30;99.90
57636;DHT22;43465;50.728;4.160;2022-11-23T01:26:12;10.20;99.90
57636;DHT22;43465;50.728;4.160;2022-11-23T01:28:38;10.30;99.90
57636;DHT22;43465;50.728;4.160;2022-11-23T01:31:14;10.30;99.90
57636;DHT22;43465;50.728;4.160;2022-11-23T01:33:40;10.40;99.90
57636;DHT22;43465;50.728;4.160;2022-11-23T01:36:13;10.30;99.90
57636;DHT22;43465;50.728;4.160;2022-11-23T01:38:40;10.30;99.90
57636;DHT22;43465;50.728;4.160;2022-11-23T01:41:08;10.30;99.90
57636;DHT22;43465;50.728;4.160;2022-11-23T01:43:35;10.20;99.90
57636;DHT22;43465;50.728;4.160;2022-11-23T01:46:01;10.20;99.90
57636;DHT22;43465;50.728;4.160;2022-11-23T01:48:36;10.20;99.90
57636;DHT22;43465;50.728;4.160;2022-11-23T01:51:04;10.20;99.90
57636;DHT22;43465;50.728;4.160;2022-11-23T01:53:31;10.20;99.90
57636;DHT22;43465;50.728;4.160;2022-11-23T01:55:59;10.20;99.90
57636;DHT22;43465;50.728;4.160;2022-11-23T01:58:29;10.20;99.90
57636;DHT22;43465;50.728;4.160;2022-11-23T02:00:56;10.20;99.90
57636;DHT22;43465;50.728;4.160;2022-11-23T02:03:22;10.20;99.90
57636;DHT22;43465;50.728;4.160;2022-11-23T02:05:52;10.20;99.90
57636;DHT22;43465;50.728;4.160;2022-11-23T02:08:24;10.30;99.90
57636;DHT22;43465;50.728;4.160;2022-11-23T02:10:50;10.30;99.90
57636;DHT22;43465;50.728;4.160;2022-11-23T02:13:16;10.20;99.90
57636;DHT22;43465;50.728;4.160;2022-11-23T02:15:42;10.20;99.90
57636;DHT22;43465;50.728;4.160;2022-11-23T02:18:22;10.20;99.90
57636;DHT22;43465;50.728;4.160;2022-11-23T02:20:49;10.20;99.90
57636;DHT22;43465;50.728;4.160;2022-11-23T02:23:27;10.20;99.90
57636;DHT22;43465;50.728;4.160;2022-11-23T02:28:30;10.20;99.90
57636;DHT22;43465;50.728;4.160;2022-11-23T02:30:57;10.20;99.90
57636;DHT22;43465;50.728;4.160;2022-11-23T02:33:23;10.20;99.90
57636;DHT22;43465;50.728;4.160;2022-11-23T02:35:59;10.30;99.90
57636;DHT22;43465;50.728;4.160;2022-11-23T02:38:30;10.30;99.90
57636;DHT22;43465;50.728;4.160;2022-11-23T02:40:58;10.20;99.90
57636;DHT22;43465;50.728;4.160;2022-11-23T02:43:23;10.20;99.90
57636;DHT22;43465;50.728;4.160;2022-11-23T02:45:53;10.20;99.90
57636;DHT22;43465;50.728;4.160;2022-11-23T02:48:19;10.20;99.90
57636;DHT22;43465;50.728;4.160;2022-11-23T02:50:45;10.20;99.90
57636;DHT22;43465;50.728;4.160;2022-11-23T02:53:11;10.30;99.90
57636;DHT22;43465;50.728;4.160;2022-11-23T02:55:37;10.30;99.90
57636;DHT22;43465;50.728;4.160;2022-11-23T02:58:04;10.20;99.90
57636;DHT22;43465;50.728;4.160;2022-11-23T03:00:30;10.30;99.90
57636;DHT22;43465;50.728;4.160;2022-11-23T03:02:58;10.30;99.90
57636;DHT22;43465;50.728;4.160;2022-11-23T03:05:24;10.20;99.90
57636;DHT22;43465;50.728;4.160;2022-11-23T03:07:50;10.30;99.90
57636;DHT22;43465;50.728;4.160;2022-11-23T03:10:16;10.30;99.90
57636;DHT22;43465;50.728;4.160;2022-11-23T03:12:42;10.30;99.90
57636;DHT22;43465;50.728;4.160;2022-11-23T03:15:08;10.30;99.90
57636;DHT22;43465;50.728;4.160;2022-11-23T03:17:34;10.30;99.90
57636;DHT22;43465;50.728;4.160;2022-11-23T03:20:00;10.30;99.90
57636;DHT22;43465;50.728;4.160;2022-11-23T03:22:25;10.30;99.90
57636;DHT22;43465;50.728;4.160;2022-11-23T03:24:51;10.30;99.90
57636;DHT22;43465;50.728;4.160;2022-11-23T03:27:17;10.40;99.90
57636;DHT22;43465;50.728;4.160;2022-11-23T03:29:43;10.40;99.90
57636;DHT22;43465;50.728;4.160;2022-11-23T03:32:08;10.50;99.90
57636;DHT22;43465;50.728;4.160;2022-11-23T03:34:34;10.50;99.90
57636;DHT22;43465;50.728;4.160;2022-11-23T03:36:59;10.50;99.90
57636;DHT22;43465;50.728;4.160;2022-11-23T03:39:25;10.50;99.90
57636;DHT22;43465;50.728;4.160;2022-11-23T03:41:51;10.60;99.90
57636;DHT22;43465;50.728;4.160;2022-11-23T03:44:16;10.60;99.90
57636;DHT22;43465;50.728;4.160;2022-11-23T03:46:42;10.70;99.90
57636;DHT22;43465;50.728;4.160;2022-11-23T03:49:07;10.70;99.90
57636;DHT22;43465;50.728;4.160;2022-11-23T03:51:33;10.70;99.90
57636;DHT22;43465;50.728;4.160;2022-11-23T03:53:59;10.70;99.90
57636;DHT22;43465;50.728;4.160;2022-11-23T03:56:24;10.70;99.90
57636;DHT22;43465;50.728;4.160;2022-11-23T03:58:50;10.60;99.90
57636;DHT22;43465;50.728;4.160;2022-11-23T04:01:15;10.60;99.90
57636;DHT22;43465;50.728;4.160;2022-11-23T04:03:41;10.60;99.90
57636;DHT22;43465;50.728;4.160;2022-11-23T04:06:07;10.50;99.90
57636;DHT22;43465;50.728;4.160;2022-11-23T04:08:32;10.50;99.90
57636;DHT22;43465;50.728;4.160;2022-11-23T04:10:58;10.50;99.90
57636;DHT22;43465;50.728;4.160;2022-11-23T04:13:24;10.40;99.90
57636;DHT22;43465;50.728;4.160;2022-11-23T04:15:50;10.40;99.90
57636;DHT22;43465;50.728;4.160;2022-11-23T04:18:16;10.40;99.90
57636;DHT22;43465;50.728;4.160;2022-11-23T04:20:41;10.40;99.90
57636;DHT22;43465;50.728;4.160;2022-11-23T04:23:07;10.40;99.90
57636;DHT22;43465;50.728;4.160;2022-11-23T04:25:33;10.30;99.90
57636;DHT22;43465;50.728;4.160;2022-11-23T04:27:58;10.30;99.90
57636;DHT22;43465;50.728;4.160;2022-11-23T04:30:24;10.20;99.90
57636;DHT22;43465;50.728;4.160;2022-11-23T04:32:51;10.20;99.90
57636;DHT22;43465;50.728;4.160;2022-11-23T04:35:16;10.10;99.90
57636;DHT22;43465;50.728;4.160;2022-11-23T04:37:42;10.00;99.90
57636;DHT22;43465;50.728;4.160;2022-11-23T04:40:08;10.00;99.90
57636;DHT22;43465;50.728;4.160;2022-11-23T04:42:34;10.00;99.90
57636;DHT22;43465;50.728;4.160;2022-11-23T04:45:00;9.90;99.90
57636;DHT22;43465;50.728;4.160;2022-11-23T04:47:26;9.90;99.90
57636;DHT22;43465;50.728;4.160;2022-11-23T04:49:51;9.80;99.90
57636;DHT22;43465;50.728;4.160;2022-11-23T04:52:17;9.70;99.90
57636;DHT22;43465;50.728;4.160;2022-11-23T04:54:42;9.60;99.90
57636;DHT22;43465;50.728;4.160;2022-11-23T04:57:08;9.60;99.90
57636;DHT22;43465;50.728;4.160;2022-11-23T04:59:34;9.50;99.90
57636;DHT22;43465;50.728;4.160;2022-11-23T05:02:00;9.40;99.90
57636;DHT22;43465;50.728;4.160;2022-11-23T05:04:26;9.40;99.90
57636;DHT22;43465;50.728;4.160;2022-11-23T05:06:51;9.30;99.90
57636;DHT22;43465;50.728;4.160;2022-11-23T05:09:17;9.30;99.90
57636;DHT22;43465;50.728;4.160;2022-11-23T05:11:43;9.30;99.90
57636;DHT22;43465;50.728;4.160;2022-11-23T05:14:08;9.30;99.90
57636;DHT22;43465;50.728;4.160;2022-11-23T05:16:34;9.30;99.90
57636;DHT22;43465;50.728;4.160;2022-11-23T05:19:00;9.30;99.90
57636;DHT22;43465;50.728;4.160;2022-11-23T05:21:25;9.30;99.90
57636;DHT22;43465;50.728;4.160;2022-11-23T05:23:51;9.30;99.90
57636;DHT22;43465;50.728;4.160;2022-11-23T05:26:17;9.30;99.90
57636;DHT22;43465;50.728;4.160;2022-11-23T05:28:42;9.30;99.90
57636;DHT22;43465;50.728;4.160;2022-11-23T05:31:08;9.30;99.90
57636;DHT22;43465;50.728;4.160;2022-11-23T05:33:34;9.30;99.90
57636;DHT22;43465;50.728;4.160;2022-11-23T05:36:00;9.20;99.90
57636;DHT22;43465;50.728;4.160;2022-11-23T05:38:25;9.20;99.90
57636;DHT22;43465;50.728;4.160;2022-11-23T05:40:51;9.20;99.90
57636;DHT22;43465;50.728;4.160;2022-11-23T05:43:16;9.20;99.90
57636;DHT22;43465;50.728;4.160;2022-11-23T05:45:42;9.20;99.90
57636;DHT22;43465;50.728;4.160;2022-11-23T05:48:09;9.20;99.90
57636;DHT22;43465;50.728;4.160;2022-11-23T05:50:35;9.20;99.90
57636;DHT22;43465;50.728;4.160;2022-11-23T05:53:00;9.20;99.90
57636;DHT22;43465;50.728;4.160;2022-11-23T05:55:26;9.20;99.90
57636;DHT22;43465;50.728;4.160;2022-11-23T05:57:52;9.10;99.90
57636;DHT22;43465;50.728;4.160;2022-11-23T06:00:18;9.20;99.90
57636;DHT22;43465;50.728;4.160;2022-11-23T06:02:44;9.20;99.90
57636;DHT22;43465;50.728;4.160;2022-11-23T06:05:10;9.20;99.90
57636;DHT22;43465;50.728;4.160;2022-11-23T06:07:36;9.20;99.90
57636;DHT22;43465;50.728;4.160;2022-11-23T06:10:04;9.20;99.90
57636;DHT22;43465;50.728;4.160;2022-11-23T06:12:30;9.20;99.90
57636;DHT22;43465;50.728;4.160;2022-11-23T06:14:56;9.20;99.90
57636;DHT22;43465;50.728;4.160;2022-11-23T06:17:22;9.10;99.90
57636;DHT22;43465;50.728;4.160;2022-11-23T06:19:48;9.10;99.90
57636;DHT22;43465;50.728;4.160;2022-11-23T06:22:14;9.10;99.90
57636;DHT22;43465;50.728;4.160;2022-11-23T06:24:40;9.10;99.90
57636;DHT22;43465;50.728;4.160;2022-11-23T06:27:06;9.10;99.90
57636;DHT22;43465;50.728;4.160;2022-11-23T06:29:32;9.10;99.90
57636;DHT22;43465;50.728;4.160;2022-11-23T06:31:57;9.10;99.90
57636;DHT22;43465;50.728;4.160;2022-11-23T06:34:23;9.10;99.90
57636;DHT22;43465;50.728;4.160;2022-11-23T06:36:49;9.10;99.90
57636;DHT22;43465;50.728;4.160;2022-11-23T06:39:14;9.10;99.90
57636;DHT22;43465;50.728;4.160;2022-11-23T06:41:40;9.10;99.90
57636;DHT22;43465;50.728;4.160;2022-11-23T06:44:08;9.10;99.90
57636;DHT22;43465;50.728;4.160;2022-11-23T06:46:34;9.10;99.90
57636;DHT22;43465;50.728;4.160;2022-11-23T06:49:00;9.00;99.90
57636;DHT22;43465;50.728;4.160;2022-11-23T06:51:25;9.00;99.90
57636;DHT22;43465;50.728;4.160;2022-11-23T06:53:51;9.00;99.90
57636;DHT22;43465;50.728;4.160;2022-11-23T06:56:16;9.00;99.90
57636;DHT22;43465;50.728;4.160;2022-11-23T06:58:42;8.90;99.90
57636;DHT22;43465;50.728;4.160;2022-11-23T07:01:08;8.90;99.90
57636;DHT22;43465;50.728;4.160;2022-11-23T07:03:35;8.90;99.90
57636;DHT22;43465;50.728;4.160;2022-11-23T07:06:05;8.80;99.90
57636;DHT22;43465;50.728;4.160;2022-11-23T07:08:31;8.80;99.90
57636;DHT22;43465;50.728;4.160;2022-11-23T07:11:01;8.80;99.90
57636;DHT22;43465;50.728;4.160;2022-11-23T07:13:26;8.70;99.90
57636;DHT22;43465;50.728;4.160;2022-11-23T07:15:52;8.70;99.90
57636;DHT22;43465;50.728;4.160;2022-11-23T07:18:18;8.70;99.90
57636;DHT22;43465;50.728;4.160;2022-11-23T07:20:43;8.60;99.90
57636;DHT22;43465;50.728;4.160;2022-11-23T07:23:10;8.60;99.90
57636;DHT22;43465;50.728;4.160;2022-11-23T07:25:37;8.60;99.90
57636;DHT22;43465;50.728;4.160;2022-11-23T07:28:04;8.50;99.90
57636;DHT22;43465;50.728;4.160;2022-11-23T07:30:31;8.50;99.90
57636;DHT22;43465;50.728;4.160;2022-11-23T07:33:02;8.50;99.90
57636;DHT22;43465;50.728;4.160;2022-11-23T07:35:28;8.40;99.90
57636;DHT22;43465;50.728;4.160;2022-11-23T07:37:54;8.40;99.90
57636;DHT22;43465;50.728;4.160;2022-11-23T07:40:20;8.40;99.90
57636;DHT22;43465;50.728;4.160;2022-11-23T07:42:45;8.50;99.90
57636;DHT22;43465;50.728;4.160;2022-11-23T07:45:11;8.40;99.90
57636;DHT22;43465;50.728;4.160;2022-11-23T07:47:38;8.50;99.90
57636;DHT22;43465;50.728;4.160;2022-11-23T07:50:06;8.50;99.90
57636;DHT22;43465;50.728;4.160;2022-11-23T07:52:32;8.60;99.90
57636;DHT22;43465;50.728;4.160;2022-11-23T07:55:00;8.60;99.90
57636;DHT22;43465;50.728;4.160;2022-11-23T07:57:25;8.70;99.90
57636;DHT22;43465;50.728;4.160;2022-11-23T07:59:51;8.70;99.90
57636;DHT22;43465;50.728;4.160;2022-11-23T08:02:17;8.70;99.90
57636;DHT22;43465;50.728;4.160;2022-11-23T08:04:43;8.80;99.90
57636;DHT22;43465;50.728;4.160;2022-11-23T08:07:09;8.80;99.90
57636;DHT22;43465;50.728;4.160;2022-11-23T08:09:35;8.90;99.90
57636;DHT22;43465;50.728;4.160;2022-11-23T08:12:00;8.90;99.90
57636;DHT22;43465;50.728;4.160;2022-11-23T08:14:26;8.90;99.90
57636;DHT22;43465;50.728;4.160;2022-11-23T08:16:52;9.00;99.90
57636;DHT22;43465;50.728;4.160;2022-11-23T08:19:17;9.00;99.90
57636;DHT22;43465;50.728;4.160;2022-11-23T08:21:43;9.10;99.90
57636;DHT22;43465;50.728;4.160;2022-11-23T08:24:10;9.10;99.90
57636;DHT22;43465;50.728;4.160;2022-11-23T08:26:35;9.20;99.90
57636;DHT22;43465;50.728;4.160;2022-11-23T08:29:01;9.30;99.90
57636;DHT22;43465;50.728;4.160;2022-11-23T08:31:27;9.30;99.90
57636;DHT22;43465;50.728;4.160;2022-11-23T08:33:53;9.30;99.90
57636;DHT22;43465;50.728;4.160;2022-11-23T08:36:18;9.40;99.90
57636;DHT22;43465;50.728;4.160;2022-11-23T08:38:45;9.40;99.90
57636;DHT22;43465;50.728;4.160;2022-11-23T08:41:10;9.40;99.90
57636;DHT22;43465;50.728;4.160;2022-11-23T08:43:36;9.40;99.90
57636;DHT22;43465;50.728;4.160;2022-11-23T08:46:02;9.40;99.90
57636;DHT22;43465;50.728;4.160;2022-11-23T08:48:27;9.40;99.90
57636;DHT22;43465;50.728;4.160;2022-11-23T08:50:56;9.50;99.90
57636;DHT22;43465;50.728;4.160;2022-11-23T08:53:22;9.60;99.90
57636;DHT22;43465;50.728;4.160;2022-11-23T08:55:48;9.60;99.90
57636;DHT22;43465;50.728;4.160;2022-11-23T08:58:13;9.60;99.90
57636;DHT22;43465;50.728;4.160;2022-11-23T09:00:39;9.60;99.90
57636;DHT22;43465;50.728;4.160;2022-11-23T09:03:04;9.60;99.90
57636;DHT22;43465;50.728;4.160;2022-11-23T09:05:30;9.70;99.90
57636;DHT22;43465;50.728;4.160;2022-11-23T09:07:59;9.70;99.90
57636;DHT22;43465;50.728;4.160;2022-11-23T09:10:25;9.70;99.90
57636;DHT22;43465;50.728;4.160;2022-11-23T09:12:51;9.70;99.90
57636;DHT22;43465;50.728;4.160;2022-11-23T09:15:17;9.70;99.90
57636;DHT22;43465;50.728;4.160;2022-11-23T09:17:43;9.60;99.90
57636;DHT22;43465;50.728;4.160;2022-11-23T09:20:09;9.70;99.90
57636;DHT22;43465;50.728;4.160;2022-11-23T09:22:35;9.70;99.90
57636;DHT22;43465;50.728;4.160;2022-11-23T09:25:01;9.80;99.90
57636;DHT22;43465;50.728;4.160;2022-11-23T09:27:27;9.80;99.90
57636;DHT22;43465;50.728;4.160;2022-11-23T09:29:52;9.80;99.90
57636;DHT22;43465;50.728;4.160;2022-11-23T09:32:18;9.90;99.90
57636;DHT22;43465;50.728;4.160;2022-11-23T09:34:44;10.00;99.90
57636;DHT22;43465;50.728;4.160;2022-11-23T09:37:10;10.00;99.90
57636;DHT22;43465;50.728;4.160;2022-11-23T09:39:36;10.10;99.90
57636;DHT22;43465;50.728;4.160;2022-11-23T09:42:15;10.10;99.90
57636;DHT22;43465;50.728;4.160;2022-11-23T09:50:26;10.20;99.90
57636;DHT22;43465;50.728;4.160;2022-11-23T09:52:53;10.30;99.90
57636;DHT22;43465;50.728;4.160;2022-11-23T09:55:43;10.40;99.90
57636;DHT22;43465;50.728;4.160;2022-11-23T09:58:16;10.50;99.90
57636;DHT22;43465;50.728;4.160;2022-11-23T10:01:14;10.40;99.90
57636;DHT22;43465;50.728;4.160;2022-11-23T10:03:42;10.50;99.90
57636;DHT22;43465;50.728;4.160;2022-11-23T10:06:23;10.40;99.90
57636;DHT22;43465;50.728;4.160;2022-11-23T10:09:11;10.50;99.90
57636;DHT22;43465;50.728;4.160;2022-11-23T10:23:02;10.60;99.90
57636;DHT22;43465;50.728;4.160;2022-11-23T10:25:37;10.70;99.90
57636;DHT22;43465;50.728;4.160;2022-11-23T10:28:13;10.70;99.90
57636;DHT22;43465;50.728;4.160;2022-11-23T10:30:40;10.80;99.90
57636;DHT22;43465;50.728;4.160;2022-11-23T10:35:53;10.80;99.90
57636;DHT22;43465;50.728;4.160;2022-11-23T10:38:19;10.80;99.90
57636;DHT22;43465;50.728;4.160;2022-11-23T10:43:17;10.90;99.90
57636;DHT22;43465;50.728;4.160;2022-11-23T10:45:46;10.90;99.90
57636;DHT22;43465;50.728;4.160;2022-11-23T10:48:14;11.00;99.90
57636;DHT22;43465;50.728;4.160;2022-11-23T10:51:20;11.00;99.90
57636;DHT22;43465;50.728;4.160;2022-11-23T10:53:57;11.10;99.90
57636;DHT22;43465;50.728;4.160;2022-11-23T10:56:24;11.20;99.90
57636;DHT22;43465;50.728;4.160;2022-11-23T10:58:50;11.20;99.90
57636;DHT22;43465;50.728;4.160;2022-11-23T11:01:21;11.30;99.90
57636;DHT22;43465;50.728;4.160;2022-11-23T11:03:52;11.40;99.90
57636;DHT22;43465;50.728;4.160;2022-11-23T11:06:30;11.40;99.90
57636;DHT22;43465;50.728;4.160;2022-11-23T11:08:59;11.40;99.90
57636;DHT22;43465;50.728;4.160;2022-11-23T11:11:26;11.50;99.90
57636;DHT22;43465;50.728;4.160;2022-11-23T11:14:20;11.40;99.90
57636;DHT22;43465;50.728;4.160;2022-11-23T11:16:51;11.50;99.90
57636;DHT22;43465;50.728;4.160;2022-11-23T11:21:45;11.50;99.90
57636;DHT22;43465;50.728;4.160;2022-11-23T11:27:01;11.60;99.90
57636;DHT22;43465;50.728;4.160;2022-11-23T11:29:30;11.60;99.90
57636;DHT22;43465;50.728;4.160;2022-11-23T11:32:19;11.60;99.90
57636;DHT22;43465;50.728;4.160;2022-11-23T11:35:16;11.60;99.90
57636;DHT22;43465;50.728;4.160;2022-11-23T11:37:46;11.70;99.90
57636;DHT22;43465;50.728;4.160;2022-11-23T11:40:29;11.70;99.90
57636;DHT22;43465;50.728;4.160;2022-11-23T11:45:45;11.70;99.90
57636;DHT22;43465;50.728;4.160;2022-11-23T11:48:15;11.70;99.90
57636;DHT22;43465;50.728;4.160;2022-11-23T11:50:52;11.70;99.90
57636;DHT22;43465;50.728;4.160;2022-11-23T11:56:11;11.80;99.90
57636;DHT22;43465;50.728;4.160;2022-11-23T11:58:43;11.70;99.90
57636;DHT22;43465;50.728;4.160;2022-11-23T12:01:30;11.70;99.90
57636;DHT22;43465;50.728;4.160;2022-11-23T12:04:01;11.70;99.90
57636;DHT22;43465;50.728;4.160;2022-11-23T12:06:48;11.70;99.90
57636;DHT22;43465;50.728;4.160;2022-11-23T12:09:17;11.70;99.90
57636;DHT22;43465;50.728;4.160;2022-11-23T12:11:44;11.60;99.90
57636;DHT22;43465;50.728;4.160;2022-11-23T12:14:12;11.60;99.90
57636;DHT22;43465;50.728;4.160;2022-11-23T12:19:21;11.50;99.90
57636;DHT22;43465;50.728;4.160;2022-11-23T12:22:06;11.50;99.90
57636;DHT22;43465;50.728;4.160;2022-11-23T12:37:57;11.00;99.90
57636;DHT22;43465;50.728;4.160;2022-11-23T12:43:34;10.80;99.90
57636;DHT22;43465;50.728;4.160;2022-11-23T12:48:45;10.70;99.90
57636;DHT22;43465;50.728;4.160;2022-11-23T12:51:21;10.70;99.90
57636;DHT22;43465;50.728;4.160;2022-11-23T12:54:52;10.60;99.90
57636;DHT22;43465;50.728;4.160;2022-11-23T12:59:21;10.40;99.90
57636;DHT22;43465;50.728;4.160;2022-11-23T13:01:55;10.40;99.90
57636;DHT22;43465;50.728;4.160;2022-11-23T13:04:47;10.30;99.90
57636;DHT22;43465;50.728;4.160;2022-11-23T13:07:20;10.30;99.90
57636;DHT22;43465;50.728;4.160;2022-11-23T13:13:15;10.20;99.90
57636;DHT22;43465;50.728;4.160;2022-11-23T13:18:54;10.20;99.90
57636;DHT22;43465;50.728;4.160;2022-11-23T13:21:29;10.20;99.90
57636;DHT22;43465;50.728;4.160;2022-11-23T13:23:58;10.10;99.90
57636;DHT22;43465;50.728;4.160;2022-11-23T13:26:28;10.10;99.90
57636;DHT22;43465;50.728;4.160;2022-11-23T13:28:56;10.10;99.90
57636;DHT22;43465;50.728;4.160;2022-11-23T13:31:34;10.20;99.90
57636;DHT22;43465;50.728;4.160;2022-11-23T13:34:52;10.20;99.90
57636;DHT22;43465;50.728;4.160;2022-11-23T13:37:11;10.20;99.90
57636;DHT22;43465;50.728;4.160;2022-11-23T13:42:10;10.20;99.90
57636;DHT22;43465;50.728;4.160;2022-11-23T13:44:36;10.20;99.90
57636;DHT22;43465;50.728;4.160;2022-11-23T13:49:50;10.20;99.90
57636;DHT22;43465;50.728;4.160;2022-11-23T13:57:21;10.10;99.90
57636;DHT22;43465;50.728;4.160;2022-11-23T13:59:47;10.10;99.90
57636;DHT22;43465;50.728;4.160;2022-11-23T14:02:26;10.10;99.90
57636;DHT22;43465;50.728;4.160;2022-11-23T14:05:55;10.00;99.90
57636;DHT22;43465;50.728;4.160;2022-11-23T14:08:02;10.00;99.90
57636;DHT22;43465;50.728;4.160;2022-11-23T14:10:30;10.00;99.90
57636;DHT22;43465;50.728;4.160;2022-11-23T14:13:27;10.00;99.90
57636;DHT22;43465;50.728;4.160;2022-11-23T14:16:00;10.00;99.90
57636;DHT22;43465;50.728;4.160;2022-11-23T14:18:51;10.00;99.90
57636;DHT22;43465;50.728;4.160;2022-11-23T14:21:47;10.00;99.90
57636;DHT22;43465;50.728;4.160;2022-11-23T14:33:17;10.10;99.90
57636;DHT22;43465;50.728;4.160;2022-11-23T14:36:05;10.20;99.90
57636;DHT22;43465;50.728;4.160;2022-11-23T14:41:23;10.40;99.90
57636;DHT22;43465;50.728;4.160;2022-11-23T14:43:50;10.40;99.90
57636;DHT22;43465;50.728;4.160;2022-11-23T14:46:22;10.60;99.90
57636;DHT22;43465;50.728;4.160;2022-11-23T14:48:50;10.60;99.90
57636;DHT22;43465;50.728;4.160;2022-11-23T14:51:25;10.70;99.90
57636;DHT22;43465;50.728;4.160;2022-11-23T14:53:56;10.80;99.90
57636;DHT22;43465;50.728;4.160;2022-11-23T14:56:41;10.90;99.90
57636;DHT22;43465;50.728;4.160;2022-11-23T14:59:19;11.10;99.90
57636;DHT22;43465;50.728;4.160;2022-11-23T15:04:49;11.10;99.90
57636;DHT22;43465;50.728;4.160;2022-11-23T15:07:22;11.10;99.90
57636;DHT22;43465;50.728;4.160;2022-11-23T15:12:26;11.10;99.90
57636;DHT22;43465;50.728;4.160;2022-11-23T15:14:53;11.10;99.90
57636;DHT22;43465;50.728;4.160;2022-11-23T15:17:22;11.10;99.90
57636;DHT22;43465;50.728;4.160;2022-11-23T15:20:01;11.10;99.90
57636;DHT22;43465;50.728;4.160;2022-11-23T15:22:28;11.10;99.90
57636;DHT22;43465;50.728;4.160;2022-11-23T15:25:07;11.10;99.90
57636;DHT22;43465;50.728;4.160;2022-11-23T15:27:37;11.00;99.90
57636;DHT22;43465;50.728;4.160;2022-11-23T15:30:12;11.00;99.90
57636;DHT22;43465;50.728;4.160;2022-11-23T15:32:38;10.90;99.90
57636;DHT22;43465;50.728;4.160;2022-11-23T15:35:06;10.90;99.90
57636;DHT22;43465;50.728;4.160;2022-11-23T15:37:42;10.80;99.90
57636;DHT22;43465;50.728;4.160;2022-11-23T15:40:14;10.70;99.90
57636;DHT22;43465;50.728;4.160;2022-11-23T15:42:41;10.60;99.90
57636;DHT22;43465;50.728;4.160;2022-11-23T15:46:09;10.60;99.90
57636;DHT22;43465;50.728;4.160;2022-11-23T15:48:18;10.50;99.90
57636;DHT22;43465;50.728;4.160;2022-11-23T15:50:54;10.40;99.90
57636;DHT22;43465;50.728;4.160;2022-11-23T15:53:24;10.20;99.90
57636;DHT22;43465;50.728;4.160;2022-11-23T15:55:52;10.10;99.90
57636;DHT22;43465;50.728;4.160;2022-11-23T15:58:19;10.10;99.90
57636;DHT22;43465;50.728;4.160;2022-11-23T16:01:11;10.00;99.90
57636;DHT22;43465;50.728;4.160;2022-11-23T16:03:49;9.80;99.90
57636;DHT22;43465;50.728;4.160;2022-11-23T16:06:38;9.70;99.90
57636;DHT22;43465;50.728;4.160;2022-11-23T16:09:42;9.70;99.90
57636;DHT22;43465;50.728;4.160;2022-11-23T16:12:25;9.60;99.90
57636;DHT22;43465;50.728;4.160;2022-11-23T16:14:54;9.50;99.90
57636;DHT22;43465;50.728;4.160;2022-11-23T16:17:22;9.50;99.90
57636;DHT22;43465;50.728;4.160;2022-11-23T16:19:50;9.40;99.90
57636;DHT22;43465;50.728;4.160;2022-11-23T16:22:34;9.40;99.90
57636;DHT22;43465;50.728;4.160;2022-11-23T16:25:23;9.40;99.90
57636;DHT22;43465;50.728;4.160;2022-11-23T16:28:00;9.30;99.90
57636;DHT22;43465;50.728;4.160;2022-11-23T16:30:34;9.30;99.90
57636;DHT22;43465;50.728;4.160;2022-11-23T16:33:00;9.30;99.90
57636;DHT22;43465;50.728;4.160;2022-11-23T16:35:26;9.30;99.90
57636;DHT22;43465;50.728;4.160;2022-11-23T16:37:52;9.40;99.90
57636;DHT22;43465;50.728;4.160;2022-11-23T16:40:17;9.30;99.90
57636;DHT22;43465;50.728;4.160;2022-11-23T16:42:43;9.30;99.90
57636;DHT22;43465;50.728;4.160;2022-11-23T16:45:09;9.40;99.90
57636;DHT22;43465;50.728;4.160;2022-11-23T16:48:00;9.40;99.90
57636;DHT22;43465;50.728;4.160;2022-11-23T16:50:32;9.40;99.90
57636;DHT22;43465;50.728;4.160;2022-11-23T16:53:14;9.40;99.90
57636;DHT22;43465;50.728;4.160;2022-11-23T16:55:40;9.40;99.90
57636;DHT22;43465;50.728;4.160;2022-11-23T16:58:07;9.50;99.90
57636;DHT22;43465;50.728;4.160;2022-11-23T17:00:34;9.50;99.90
57636;DHT22;43465;50.728;4.160;2022-11-23T17:03:00;9.50;99.90
57636;DHT22;43465;50.728;4.160;2022-11-23T17:05:25;9.60;99.90
57636;DHT22;43465;50.728;4.160;2022-11-23T17:07:51;9.60;99.90
57636;DHT22;43465;50.728;4.160;2022-11-23T17:10:17;9.60;99.90
57636;DHT22;43465;50.728;4.160;2022-11-23T17:12:51;9.70;99.90
57636;DHT22;43465;50.728;4.160;2022-11-23T17:15:20;9.60;99.90
57636;DHT22;43465;50.728;4.160;2022-11-23T17:17:52;9.60;99.90
57636;DHT22;43465;50.728;4.160;2022-11-23T17:20:29;9.70;99.90
57636;DHT22;43465;50.728;4.160;2022-11-23T17:22:55;9.70;99.90
57636;DHT22;43465;50.728;4.160;2022-11-23T17:25:25;9.70;99.90